Map

Track Data

SID SEASON NUMBER BASIN SUBBASIN NAME ISO_TIME NATURE LAT LON WMO_WIND WMO_PRES WMO_AGENCY TRACK_TYPE DIST2LAND LANDFALL IFLAG USA_AGENCY USA_ATCF_ID USA_LAT USA_LON USA_RECORD USA_STATUS USA_WIND USA_PRES USA_SSHS USA_R34_NE USA_R34_SE USA_R34_SW USA_R34_NW USA_R50_NE USA_R50_SE USA_R50_SW USA_R50_NW USA_R64_NE USA_R64_SE USA_R64_SW USA_R64_NW USA_POCI USA_ROCI USA_RMW USA_EYE TOKYO_LAT TOKYO_LON TOKYO_GRADE TOKYO_WIND TOKYO_PRES TOKYO_R50_DIR TOKYO_R50_LONG TOKYO_R50_SHORT TOKYO_R30_DIR TOKYO_R30_LONG TOKYO_R30_SHORT TOKYO_LAND CMA_LAT CMA_LON CMA_CAT CMA_WIND CMA_PRES HKO_LAT HKO_LON HKO_CAT HKO_WIND HKO_PRES NEWDELHI_LAT NEWDELHI_LON NEWDELHI_GRADE NEWDELHI_WIND NEWDELHI_PRES NEWDELHI_CI NEWDELHI_DP NEWDELHI_POCI REUNION_LAT REUNION_LON REUNION_TYPE REUNION_WIND REUNION_PRES REUNION_TNUM REUNION_CI REUNION_RMW REUNION_R34_NE REUNION_R34_SE REUNION_R34_SW REUNION_R34_NW REUNION_R50_NE REUNION_R50_SE REUNION_R50_SW REUNION_R50_NW REUNION_R64_NE REUNION_R64_SE REUNION_R64_SW REUNION_R64_NW BOM_LAT BOM_LON BOM_TYPE BOM_WIND BOM_PRES BOM_TNUM BOM_CI BOM_RMW BOM_R34_NE BOM_R34_SE BOM_R34_SW BOM_R34_NW BOM_R50_NE BOM_R50_SE BOM_R50_SW BOM_R50_NW BOM_R64_NE BOM_R64_SE BOM_R64_SW BOM_R64_NW BOM_ROCI BOM_POCI BOM_EYE BOM_POS_METHOD BOM_PRES_METHOD NADI_LAT NADI_LON NADI_CAT NADI_WIND NADI_PRES WELLINGTON_LAT WELLINGTON_LON WELLINGTON_WIND WELLINGTON_PRES DS824_LAT DS824_LON DS824_STAGE DS824_WIND DS824_PRES TD9636_LAT TD9636_LON TD9636_STAGE TD9636_WIND TD9636_PRES TD9635_LAT TD9635_LON TD9635_WIND TD9635_PRES TD9635_ROCI NEUMANN_LAT NEUMANN_LON NEUMANN_CLASS NEUMANN_WIND NEUMANN_PRES MLC_LAT MLC_LON MLC_CLASS MLC_WIND MLC_PRES USA_GUST BOM_GUST BOM_GUST_PER REUNION_GUST REUNION_GUST_PER USA_SEAHGT USA_SEARAD_NE USA_SEARAD_SE USA_SEARAD_SW USA_SEARAD_NW STORM_SPEED STORM_DIR
1880284N24295 1880 27 NA NA NOT_NAMED 1880-10-09 12:00:00 TS 23.5000 -65.0000 main 573 573 _____________O -1 23.5000 -65.0000 TS 40 4 350
1880284N24295 1880 27 NA NA NOT_NAMED 1880-10-09 15:00:00 TS 23.7100 -65.0500 main 595 594 _____________P -1 23.7100 -65.0500 TS 45 4 348
1880284N24295 1880 27 NA NA NOT_NAMED 1880-10-09 18:00:00 TS 23.9000 -65.1000 main 617 617 _____________O -1 23.9000 -65.1000 TS 50 4 346
1880284N24295 1880 27 NA NA NOT_NAMED 1880-10-09 21:00:00 TS 24.0575 -65.1500 main 638 638 _____________P -1 24.0575 -65.1500 TS 55 2 329
1880284N24295 1880 27 NA NA NOT_NAMED 1880-10-10 00:00:00 TS 24.1000 -65.2333 70 hurdat_atl main 638 638 O____________O hurdat_atl AL101880 23.9000 -65.3000 HU 70 1 24.2000 -65.2000 TS 60 2 316
1880284N24295 1880 27 NA NA NOT_NAMED 1880-10-10 03:00:00 TS 24.1988 -65.3000 main 649 649 P____________P AL101880 24.0475 -65.3500 HU 70 1 24.3500 -65.2500 TS 60 2 332
1880284N24295 1880 27 NA NA NOT_NAMED 1880-10-10 06:00:00 TS 24.3200 -65.3600 70 hurdat_atl main 660 660 O____________O hurdat_atl AL101880 24.2000 -65.4000 HU 70 1 24.5000 -65.3000 TS 60 3 338
1880284N24295 1880 27 NA NA NOT_NAMED 1880-10-10 09:00:00 TS 24.4525 -65.4167 main 682 682 P____________P AL101880 24.3575 -65.4500 HU 70 1 24.6425 -65.3500 TS 62 3 341
1880284N24295 1880 27 NA NA NOT_NAMED 1880-10-10 12:00:00 TS 24.6000 -65.4667 70 hurdat_atl main 693 693 O____________O hurdat_atl AL101880 24.5000 -65.5000 HU 70 1 24.8000 -65.4000 HU 65 3 340
1880284N24295 1880 27 NA NA NOT_NAMED 1880-10-10 15:00:00 TS 24.7233 -65.5217 main 704 704 P____________P AL101880 24.5850 -65.5575 HU 70 1 25.0000 -65.4500 HU 67 3 342
1880284N24295 1880 27 NA NA NOT_NAMED 1880-10-10 18:00:00 TS 24.8667 -65.5667 70 hurdat_atl main 726 726 O____________O hurdat_atl AL101880 24.7000 -65.6000 HU 70 1 25.2000 -65.5000 HU 70 4 352
1880284N24295 1880 27 NA NA NOT_NAMED 1880-10-10 21:00:00 TS 25.0733 -65.5784 main 749 749 P____________P AL101880 24.9350 -65.5926 HU 70 1 25.3500 -65.5500 HU 72 4 355
1880284N24295 1880 27 NA NA NOT_NAMED 1880-10-11 00:00:00 TS 25.3000 -65.6000 70 hurdat_atl main 771 771 O____________O hurdat_atl AL101880 25.2000 -65.6000 HU 70 1 25.5000 -65.6000 HU 75 4 348
1880284N24295 1880 27 NA NA NOT_NAMED 1880-10-11 03:00:00 TS 25.5050 -65.6733 main 785 785 P____________P AL101880 25.4075 -65.6850 HU 70 1 25.7000 -65.6500 HU 75 4 340
1880284N24295 1880 27 NA NA NOT_NAMED 1880-10-11 06:00:00 TS 25.7000 -65.7667 70 hurdat_atl main 800 800 O____________O hurdat_atl AL101880 25.6000 -65.8000 HU 70 1 25.9000 -65.7000 HU 75 4 337
1880284N24295 1880 27 NA NA NOT_NAMED 1880-10-11 09:00:00 TS 25.8758 -65.8451 main 820 816 P____________P AL101880 25.8075 -65.9075 HU 70 1 26.0124 -65.7204 HU 75 4 338
1880284N24295 1880 27 NA NA NOT_NAMED 1880-10-11 12:00:00 TS 26.0667 -65.9333 70 hurdat_atl main 836 831 O____________O hurdat_atl AL101880 26.0000 -66.0000 HU 70 1 26.2000 -65.8000 HU 75 985 5 337
1880284N24295 1880 27 NA NA NOT_NAMED 1880-10-11 15:00:00 TS 26.3117 -66.0499 main 852 848 P____________P AL101880 26.1650 -66.0650 HU 70 1 26.6051 -66.0197 HU 75 5 337
1880284N24295 1880 27 NA NA NOT_NAMED 1880-10-11 18:00:00 TS 26.5667 -66.1667 70 hurdat_atl main 873 873 O____________O hurdat_atl AL101880 26.3000 -66.1000 HU 70 1 27.1000 -66.3000 HU 75 5 338
1880284N24295 1880 27 NA NA NOT_NAMED 1880-10-11 21:00:00 TS 26.7809 -66.2624 main 888 888 P____________P AL101880 26.4000 -66.0926 HU 75 1 27.5426 -66.6021 HU 75 5 341
1880284N24295 1880 27 NA NA NOT_NAMED 1880-10-12 00:00:00 TS 27.0000 -66.3333 80 hurdat_atl main 909 909 O____________O hurdat_atl AL101880 26.5000 -66.1000 HU 80 1 28.0000 -66.8000 HU 75 5 349
1880284N24295 1880 27 NA NA NOT_NAMED 1880-10-12 03:00:00 TS 27.2667 -66.3719 main 935 935 P____________P AL101880 26.6500 -66.1849 HU 80 1 28.5000 -66.7457 HU 75 5 354
1880284N24295 1880 27 NA NA NOT_NAMED 1880-10-12 06:00:00 TS 27.5333 -66.4000 80 hurdat_atl main 955 955 O____________O hurdat_atl AL101880 26.8000 -66.3000 HU 80 1 29.0000 -66.6000 HU 75 5 350
1880284N24295 1880 27 NA NA NOT_NAMED 1880-10-12 09:00:00 TS 27.7674 -66.4723 main 983 983 P____________P AL101880 26.9075 -66.4075 HU 80 1 29.4872 -66.6018 HU 75 3 342
1880284N24295 1880 27 NA NA NOT_NAMED 1880-10-12 12:00:00 TS 27.7909 -66.5000 80 hurdat_atl main 983 972 O____________O hurdat_atl AL101880 27.0000 -66.5000 HU 80 1 29.9000 -66.5000 HU 75 1 157
1880284N24295 1880 27 NA NA NOT_NAMED 1880-10-12 15:00:00 TS 27.7160 -66.4635 main 972 962 P____________P AL101880 27.1000 -66.5500 HU 80 1 30.1924 -66.1153 HU 75 2 0
1880284N24295 1880 27 NA NA NOT_NAMED 1880-10-12 18:00:00 TS 27.5556 -66.4889 80 hurdat_atl main 962 923 O____________O hurdat_atl AL101880 27.2000 -66.6000 HU 80 1 30.4000 -65.6000 HU 75 5 207
1880284N24295 1880 27 NA NA NOT_NAMED 1880-10-12 21:00:00 TS 27.3000 -66.7000 main 923 920 P____________P AL101880 27.3000 -66.7000 HU 80 1 30.6130 -65.1875 HU 3 241
1880284N24295 1880 27 NA NA NOT_NAMED 1880-10-13 00:00:00 TS 27.4000 -66.8000 80 hurdat_atl main 930 930 O____________P hurdat_atl AL101880 27.4000 -66.8000 HU 80 1 30.7967 -64.8056 HU 2 322
1880284N24295 1880 27 NA NA NOT_NAMED 1880-10-13 03:00:00 TS 27.4850 -66.8576 main 936 936 P____________P AL101880 27.4850 -66.8576 HU 80 1 30.9534 -64.4514 HU 2 335
1880284N24295 1880 27 NA NA NOT_NAMED 1880-10-13 06:00:00 TS 27.6000 -66.9000 80 hurdat_atl main 944 944 O____________P hurdat_atl AL101880 27.6000 -66.9000 HU 80 1 31.0854 -64.1219 HU 3 338
1880284N24295 1880 27 NA NA NOT_NAMED 1880-10-13 09:00:00 TS 27.7550 -66.9723 main 954 954 P____________P AL101880 27.7550 -66.9723 HU 80 1 31.1948 -63.8142 HU 4 348
1880284N24295 1880 27 NA NA NOT_NAMED 1880-10-13 12:00:00 TS 28.0000 -67.0000 80 hurdat_atl main 971 971 O____________P hurdat_atl AL101880 28.0000 -67.0000 HU 80 1 31.2836 -63.5250 HU 6 0
1880284N24295 1880 27 NA NA NOT_NAMED 1880-10-13 15:00:00 TS 28.3774 -66.9598 main 1006 1006 P____________P AL101880 28.3774 -66.9598 HU 80 1 31.3540 -63.2512 HU 8 13
1880284N24295 1880 27 NA NA NOT_NAMED 1880-10-13 18:00:00 TS 28.8000 -66.8000 80 970 hurdat_atl main 1053 1053 O____________P hurdat_atl AL101880 28.8000 -66.8000 HU 80 970 1 31.4081 -62.9897 HU 9 28
1880284N24295 1880 27 NA NA NOT_NAMED 1880-10-13 21:00:00 TS 29.1576 -66.4876 main 1106 1106 P____________P AL101880 29.1576 -66.4876 HU 80 1 31.4477 -62.7371 HU 9 41
1880284N24295 1880 27 NA NA NOT_NAMED 1880-10-14 00:00:00 TS 29.5000 -66.1000 80 hurdat_atl main 1123 1123 O____________P hurdat_atl AL101880 29.5000 -66.1000 HU 80 1 31.4750 -62.4901 HU 13 47
1880284N24295 1880 27 NA NA NOT_NAMED 1880-10-14 03:00:00 TS 30.0512 -65.3724 main 1134 1134 P____________P AL101880 29.8648 -65.7574 HU 80 1 31.4918 -62.2455 HU 15 51
1880284N24295 1880 27 NA NA NOT_NAMED 1880-10-14 06:00:00 TS 30.4600 -64.7200 80 hurdat_atl main 1163 1163 O____________O hurdat_atl AL101880 30.2000 -65.4000 HU 80 1 31.5000 -62.0000 HU 80 13 58
1880284N24295 1880 27 NA NA NOT_NAMED 1880-10-14 09:00:00 TS 30.7185 -64.1218 main 1200 1200 P____________P AL101880 30.4199 -65.0140 HU 75 1 31.5302 -61.7480 HU 80 11 63
1880284N24295 1880 27 NA NA NOT_NAMED 1880-10-14 12:00:00 TS 30.9667 -63.5667 70 979 hurdat_atl main 1224 1224 O____________O hurdat_atl AL101880 30.7000 -64.6000 HU 70 979 1 31.5000 -61.5000 HU 80 979 8 52
1880284N24295 1880 27 NA NA NOT_NAMED 1880-10-14 15:00:00 TS 31.2156 -63.3833 main 1230 1223 P____________P AL101880 31.1596 -64.1862 HU 70 1 31.3775 -61.2504 HU 77 8 26
1880284N24295 1880 27 NA NA NOT_NAMED 1880-10-14 18:00:00 TS 31.6800 -63.1600 70 hurdat_atl main 1222 1215 O____________O hurdat_atl AL101880 31.8000 -63.7000 HU 70 1 31.2000 -61.0000 HU 75 13 21
1880284N24295 1880 27 NA NA NOT_NAMED 1880-10-14 21:00:00 TS 32.4523 -62.8129 main 1205 1134 P_____________ AL101880 32.6204 -63.0588 HU 70 1 HU 19 19
1880284N24295 1880 27 NA NA NOT_NAMED 1880-10-15 00:00:00 ET 33.5000 -62.4000 70 hurdat_atl main 1130 1073 O_____________ hurdat_atl AL101880 33.5000 -62.4000 EX 70 -4 20 23
1880284N24295 1880 27 NA NA NOT_NAMED 1880-10-15 03:00:00 ET 34.2795 -61.8687 main 1065 1003 P_____________ AL101880 34.2795 -61.8687 EX 70 -4 17 29
1880284N24295 1880 27 NA NA NOT_NAMED 1880-10-15 06:00:00 ET 35.0000 -61.4000 70 hurdat_atl main 1003 952 O_____________ hurdat_atl AL101880 35.0000 -61.4000 EX 70 -4 15 29
1880284N24295 1880 27 NA NA NOT_NAMED 1880-10-15 09:00:00 ET 35.6197 -60.9478 main 956 898 P_____________ AL101880 35.6197 -60.9478 EX 65 -4 15 29
1880284N24295 1880 27 NA NA NOT_NAMED 1880-10-15 12:00:00 ET 36.3000 -60.5000 60 hurdat_atl main 898 836 O_____________ hurdat_atl AL101880 36.3000 -60.5000 EX 60 -4 17 25
1880284N24295 1880 27 NA NA NOT_NAMED 1880-10-15 15:00:00 ET 37.1822 -60.0283 main 831 767 P_____________ AL101880 37.1822 -60.0283 EX 60 -4 21 23
1880284N24295 1880 27 NA NA NOT_NAMED 1880-10-15 18:00:00 ET 38.2000 -59.5000 60 hurdat_atl main 763 686 O_____________ hurdat_atl AL101880 38.2000 -59.5000 EX 60 -4 23 23
1880284N24295 1880 27 NA NA NOT_NAMED 1880-10-15 21:00:00 ET 39.2617 -58.9141 main 679 590 P_____________ AL101880 39.2617 -58.9141 EX 60 -4 24 25
1880284N24295 1880 27 NA NA NOT_NAMED 1880-10-16 00:00:00 ET 40.4000 -58.2000 60 hurdat_atl main 583 498 O_____________ hurdat_atl AL101880 40.4000 -58.2000 EX 60 -4 27 27
1880284N24295 1880 27 NA NA NOT_NAMED 1880-10-16 03:00:00 ET 41.6519 -57.3262 main 494 452 P_____________ AL101880 41.6519 -57.3262 EX 60 -4 28 31
1880284N24295 1880 27 NA NA NOT_NAMED 1880-10-16 06:00:00 ET 42.8000 -56.3000 60 hurdat_atl main 447 356 O_____________ hurdat_atl AL101880 42.8000 -56.3000 EX 60 -4 25 37
1880284N24295 1880 27 NA NA NOT_NAMED 1880-10-16 09:00:00 ET 43.6603 -55.2287 main 345 258 P_____________ AL101880 43.6603 -55.2287 EX 60 -4 22 48
1880284N24295 1880 27 NA NA NOT_NAMED 1880-10-16 12:00:00 ET 44.3000 -54.0000 60 hurdat_atl main 257 205 O_____________ hurdat_atl AL101880 44.3000 -54.0000 EX 60 -4 22 59
1880284N24295 1880 27 NA NA NOT_NAMED 1880-10-16 15:00:00 ET 44.7926 -52.5647 main 205 200 P_____________ AL101880 44.7926 -52.5647 EX 60 -4 23 67
1880284N24295 1880 27 NA NA NOT_NAMED 1880-10-16 18:00:00 ET 45.2000 -51.0000 60 hurdat_atl main 230 O_____________ hurdat_atl AL101880 45.2000 -51.0000 EX 60 -4 23 70

About IBTrACS Database

This database is a web-friendly format of International Best Track Archive for Climate Stewardship (IBTrACS), a global best track data archive curated by NOAA dating back to 1842.

Updated: 2021-11-26